Time;durP1;ratioP1;P1;durP2;ratioP2;P2;SDS_P1;SDS_P2;PMS_P1;PMS_P2;Temp;Humidity;BMP_temperature;BMP_pressure;BME280_temperature;BME280_humidity;BME280_pressure;Samples;Min_cycle;Max_cycle;Signal;HPM_P1;HPM_P2
2023/02/14 00:00:56;;;;;;;25.67;16.77;;;;;;;1.82;100.00;102957.53;4862350;29;20053;-83
2023/02/14 00:03:23;;;;;;;26.77;15.32;;;;;;;1.79;100.00;102953.06;4859142;29;20066;-78
2023/02/14 00:05:49;;;;;;;24.67;14.35;;;;;;;1.78;100.00;102959.03;4842874;29;20053;-82
2023/02/14 00:08:16;;;;;;;25.50;15.32;;;;;;;1.73;100.00;102957.84;4860630;29;20083;-80
2023/02/14 00:10:42;;;;;;;30.02;16.05;;;;;;;1.69;100.00;102947.22;4868397;29;20045;-81
2023/02/14 00:13:09;;;;;;;29.23;15.05;;;;;;;1.70;100.00;102949.03;4863236;29;20049;-82
2023/02/14 00:15:34;;;;;;;30.10;15.45;;;;;;;1.69;100.00;102953.28;4862696;29;20053;-76
2023/02/14 00:18:02;;;;;;;32.03;16.33;;;;;;;1.70;100.00;102955.06;4845331;29;20083;-81
2023/02/14 00:20:28;;;;;;;29.70;15.48;;;;;;;1.67;100.00;102956.56;4862114;29;20100;-76
2023/02/14 00:22:55;;;;;;;26.42;15.63;;;;;;;1.63;100.00;102951.22;4858997;29;20037;-78
2023/02/14 00:25:22;;;;;;;26.17;16.73;;;;;;;1.63;100.00;102956.38;4859695;29;20835;-78
2023/02/14 00:27:48;;;;;;;27.73;15.85;;;;;;;1.62;100.00;102952.00;4856480;29;20041;-78
2023/02/14 00:30:15;;;;;;;29.55;17.65;;;;;;;1.58;100.00;102952.59;4859133;29;20045;-77
2023/02/14 00:32:42;;;;;;;27.27;15.77;;;;;;;1.58;100.00;102952.59;4860789;29;20052;-79
2023/02/14 00:35:10;;;;;;;28.48;15.23;;;;;;;1.58;100.00;102956.88;4866664;29;20148;-77
2023/02/14 00:37:37;;;;;;;31.88;17.77;;;;;;;1.57;100.00;102950.81;4857394;29;20559;-78
2023/02/14 00:40:06;;;;;;;29.00;15.82;;;;;;;1.55;100.00;102947.25;4861778;29;20049;-78
2023/02/14 00:42:33;;;;;;;28.00;15.85;;;;;;;1.52;100.00;102952.19;4865087;29;20135;-82
2023/02/14 00:44:59;;;;;;;27.48;15.70;;;;;;;1.46;100.00;102959.53;4855884;29;20049;-78
2023/02/14 00:47:26;;;;;;;28.63;15.48;;;;;;;1.44;100.00;102959.44;4859550;29;20118;-78
2023/02/14 00:49:52;;;;;;;28.00;16.17;;;;;;;1.37;100.00;102957.25;4857245;29;20049;-79
2023/02/14 00:52:19;;;;;;;27.70;15.85;;;;;;;1.39;100.00;102958.22;4842181;29;20101;-79
2023/02/14 00:54:45;;;;;;;30.95;17.38;;;;;;;1.43;100.00;102965.38;4856825;29;20052;-77
2023/02/14 00:57:12;;;;;;;31.08;16.08;;;;;;;1.43;100.00;102961.91;4857797;29;20045;-78
2023/02/14 00:59:38;;;;;;;35.75;18.33;;;;;;;1.40;100.00;102967.75;4841278;29;20056;-82
2023/02/14 01:02:05;;;;;;;35.50;17.38;;;;;;;1.36;100.00;102968.34;4840350;29;20048;-80
2023/02/14 01:04:31;;;;;;;28.30;15.57;;;;;;;1.35;100.00;102973.44;4853028;29;20179;-78
2023/02/14 01:06:58;;;;;;;35.33;16.38;;;;;;;1.30;100.00;102970.53;4859830;29;20160;-80
2023/02/14 01:09:24;;;;;;;30.13;16.13;;;;;;;1.28;100.00;102969.56;4858369;29;20049;-82
2023/02/14 01:11:51;;;;;;;34.78;16.67;;;;;;;1.30;100.00;102967.94;4858883;29;21065;-81
2023/02/14 01:14:18;;;;;;;27.70;15.90;;;;;;;1.29;100.00;102958.41;4852437;29;20067;-80
2023/02/14 01:16:44;;;;;;;29.33;16.25;;;;;;;1.24;100.00;102962.38;4855533;29;20568;-78
2023/02/14 01:19:11;;;;;;;35.40;18.25;;;;;;;1.25;100.00;102948.69;4841253;29;20514;-77
2023/02/14 01:21:37;;;;;;;33.22;16.70;;;;;;;1.22;100.00;102956.22;4858420;29;20041;-79
2023/02/14 01:24:07;;;;;;;35.03;18.98;;;;;;;1.18;100.00;102960.28;4854395;29;20141;-77
2023/02/14 01:26:35;;;;;;;36.40;17.90;;;;;;;1.21;100.00;102964.75;4857348;29;20236;-80
2023/02/14 01:29:03;;;;;;;30.27;17.98;;;;;;;1.15;100.00;102962.69;4856224;29;20046;-80
2023/02/14 01:31:34;;;;;;;34.70;19.75;;;;;;;1.11;100.00;102963.25;4859132;29;20049;-79
2023/02/14 01:34:00;;;;;;;28.35;16.10;;;;;;;1.06;100.00;102959.47;4855992;29;20037;-77
2023/02/14 01:36:31;;;;;;;31.42;18.35;;;;;;;1.04;100.00;102956.78;4855146;29;20544;-79
2023/02/14 01:39:03;;;;;;;30.27;15.57;;;;;;;1.02;100.00;102958.38;4857010;29;20049;-79
2023/02/14 01:41:33;;;;;;;31.58;17.42;;;;;;;1.04;100.00;102961.94;4860933;29;20053;-83
2023/02/14 01:44:02;;;;;;;31.52;18.27;;;;;;;1.07;100.00;102962.16;4846592;29;20552;-83
2023/02/14 01:46:33;;;;;;;37.58;18.23;;;;;;;1.09;100.00;102959.69;4840148;29;20056;-78
2023/02/14 01:49:17;;;;;;;32.35;17.10;;;;;;;1.10;100.00;102961.47;4864865;29;20563;-81
2023/02/14 01:51:50;;;;;;;34.50;19.27;;;;;;;1.06;100.00;102955.19;4871624;29;20174;-77
2023/02/14 01:54:18;;;;;;;35.30;17.92;;;;;;;1.05;100.00;102962.84;4876418;29;20377;-77
2023/02/14 01:56:50;;;;;;;37.20;17.67;;;;;;;1.01;100.00;102959.16;4861014;29;20045;-82
2023/02/14 01:59:22;;;;;;;30.48;18.27;;;;;;;0.96;100.00;102956.25;4876805;29;20087;-78
2023/02/14 02:01:52;;;;;;;41.00;19.08;;;;;;;0.94;100.00;102955.28;4860922;29;20518;-78
2023/02/14 02:04:27;;;;;;;34.67;16.70;;;;;;;0.97;100.00;102954.59;4846575;29;20057;-78
2023/02/14 02:07:04;;;;;;;31.02;17.15;;;;;;;0.96;100.00;102953.69;4867409;29;20479;-80
2023/02/14 02:09:47;;;;;;;38.13;18.25;;;;;;;0.97;100.00;102950.31;4872148;29;20060;-81
2023/02/14 02:12:13;;;;;;;31.25;16.48;;;;;;;0.96;100.00;102945.06;4858951;29;20037;-78
2023/02/14 02:14:41;;;;;;;35.30;18.20;;;;;;;0.93;100.00;102944.88;4863363;29;20051;-81
2023/02/14 02:17:58;;;;;;;36.47;18.80;;;;;;;0.89;100.00;102943.75;4860888;29;20059;-80
2023/02/14 02:21:08;;;;;;;31.75;17.23;;;;;;;0.86;100.00;102938.41;4870439;29;20041;-78
2023/02/14 02:24:20;;;;;;;31.08;17.25;;;;;;;0.84;100.00;102936.50;4858770;29;20040;-82
2023/02/14 02:27:18;;;;;;;30.50;16.45;;;;;;;0.81;100.00;102940.66;4872782;29;20052;-76
2023/02/14 02:30:32;;;;;;;34.30;18.60;;;;;;;0.77;100.00;102930.00;4862013;29;20057;-76
2023/02/14 02:33:33;;;;;;;36.15;18.08;;;;;;;0.71;100.00;102919.31;4875795;29;20041;-78
2023/02/14 02:36:11;;;;;;;25.75;16.48;;;;;;;0.70;100.00;102910.66;4873097;29;20492;-76
2023/02/14 02:39:00;;;;;;;29.98;15.95;;;;;;;0.68;100.00;102916.50;4877188;29;20049;-77
2023/02/14 02:42:04;;;;;;;27.42;14.65;;;;;;;0.65;100.00;102912.03;4862407;29;20059;-80
2023/02/14 02:44:55;;;;;;;32.27;15.17;;;;;;;0.60;100.00;102903.09;4869127;29;20100;-79
2023/02/14 02:47:33;;;;;;;30.75;18.58;;;;;;;0.62;100.00;102898.94;4878097;29;20045;-79
2023/02/14 02:53:41;;;;;;;32.88;16.60;;;;;;;0.57;100.00;102901.19;4867890;29;20045;-78
2023/02/14 02:59:17;;;;;;;29.48;16.50;;;;;;;0.48;100.00;102901.47;4862868;29;20108;-79
2023/02/14 03:01:50;;;;;;;31.85;17.13;;;;;;;0.45;100.00;102896.09;4867359;29;20535;-77
2023/02/14 03:07:33;;;;;;;34.63;17.45;;;;;;;0.43;100.00;102900.28;4861183;29;20046;-77
2023/02/14 03:09:57;;;;;;;34.22;17.40;;;;;;;0.45;100.00;102896.09;4862580;29;21344;-77
2023/02/14 03:12:33;;;;;;;30.95;15.68;;;;;;;0.45;100.00;102900.38;4861196;29;20049;-78
2023/02/14 03:15:27;;;;;;;29.25;16.08;;;;;;;0.46;100.00;102894.44;4868027;29;20044;-81
2023/02/14 03:21:41;;;;;;;65.57;17.60;;;;;;;0.41;100.00;102888.94;4850266;29;20572;-79
2023/02/14 03:24:28;;;;;;;85.88;20.48;;;;;;;0.31;100.00;102896.84;4868665;29;20045;-76
2023/02/14 03:27:30;;;;;;;43.80;17.02;;;;;;;0.24;100.00;102886.91;4875809;29;20757;-77
2023/02/14 03:30:09;;;;;;;42.17;13.27;;;;;;;0.16;100.00;102894.09;4860448;29;20947;-84
2023/02/14 03:33:05;;;;;;;71.00;14.52;;;;;;;0.07;100.00;102885.72;4858890;29;20052;-78
2023/02/14 03:35:45;;;;;;;46.25;16.10;;;;;;;0.04;100.00;102888.06;4858824;29;20048;-77
2023/02/14 03:38:27;;;;;;;75.05;15.82;;;;;;;0.00;100.00;102879.25;4861170;29;20052;-82
2023/02/14 03:41:01;;;;;;;38.47;11.13;;;;;;;-0.09;100.00;102884.66;4860671;29;20051;-76
2023/02/14 03:43:36;;;;;;;75.85;15.68;;;;;;;-0.15;100.00;102883.31;4848843;29;20056;-81
2023/02/14 03:46:20;;;;;;;21.33;10.65;;;;;;;-0.18;100.00;102879.75;4874146;29;20429;-80
2023/02/14 03:48:48;;;;;;;36.40;11.47;;;;;;;-0.20;100.00;102868.44;4851062;29;20463;-80
2023/02/14 03:51:18;;;;;;;69.10;11.98;;;;;;;-0.17;100.00;102868.66;4858983;29;20289;-84
2023/02/14 03:53:48;;;;;;;53.10;13.02;;;;;;;-0.19;100.00;102871.91;4831652;29;20048;-77
2023/02/14 03:56:28;;;;;;;81.18;18.25;;;;;;;-0.25;100.00;102869.81;4851288;29;20060;-79
2023/02/14 03:59:00;;;;;;;20.02;10.45;;;;;;;-0.26;100.00;102865.44;4859074;29;20108;-77
2023/02/14 04:01:39;;;;;;;49.28;12.60;;;;;;;-0.21;100.00;102873.47;4865302;29;20045;-78
2023/02/14 04:04:07;;;;;;;35.65;12.52;;;;;;;-0.24;100.00;102866.41;4851948;29;20052;-86
2023/02/14 04:06:34;;;;;;;50.20;11.70;;;;;;;-0.28;100.00;102859.28;4867053;29;20547;-79
2023/02/14 04:09:00;;;;;;;21.67;9.57;;;;;;;-0.25;100.00;102874.97;4859398;29;20074;-83
2023/02/14 04:11:27;;;;;;;22.20;10.23;;;;;;;-0.21;100.00;102865.75;4859703;29;20041;-80
2023/02/14 04:13:54;;;;;;;51.40;13.55;;;;;;;-0.24;100.00;102870.69;4856861;29;20051;-78
2023/02/14 04:16:20;;;;;;;36.35;11.23;;;;;;;-0.30;100.00;102863.44;4863842;29;20105;-81
2023/02/14 04:21:31;;;;;;;66.15;16.02;;;;;;;-0.48;100.00;102857.88;4858533;29;20188;-78
2023/02/14 04:23:57;;;;;;;56.92;12.75;;;;;;;-0.55;100.00;102856.53;4838791;29;20052;-81
2023/02/14 04:26:24;;;;;;;50.97;12.30;;;;;;;-0.58;100.00;102856.28;4853690;29;20040;-84
2023/02/14 04:28:50;;;;;;;27.90;11.55;;;;;;;-0.53;100.00;102849.81;4859931;29;20045;-80
2023/02/14 04:31:17;;;;;;;46.28;12.93;;;;;;;-0.50;100.00;102854.28;4861181;29;20041;-79
2023/02/14 04:33:44;;;;;;;33.47;10.38;;;;;;;-0.48;100.00;102851.81;4858605;29;20464;-81
2023/02/14 04:36:11;;;;;;;53.65;10.90;;;;;;;-0.50;100.00;102854.28;4858450;29;20049;-81
2023/02/14 04:38:38;;;;;;;63.25;14.15;;;;;;;-0.55;100.00;102847.91;4843435;29;20053;-78
2023/02/14 04:41:05;;;;;;;44.50;10.15;;;;;;;-0.60;100.00;102846.69;4859769;29;20041;-77
2023/02/14 04:43:32;;;;;;;36.00;10.23;;;;;;;-0.65;100.00;102846.38;4841539;29;20049;-83
2023/02/14 04:45:58;;;;;;;18.05;9.60;;;;;;;-0.62;100.00;102844.00;4862251;29;20061;-78
2023/02/14 04:48:25;;;;;;;62.30;13.23;;;;;;;-0.60;100.00;102842.44;4860919;29;20052;-77
2023/02/14 04:50:55;;;;;;;39.55;12.18;;;;;;;-0.67;100.00;102840.19;4872262;29;20065;-77
2023/02/14 04:53:22;;;;;;;24.80;8.93;;;;;;;-0.74;100.00;102840.56;4852153;29;20590;-83
2023/02/14 04:55:49;;;;;;;38.35;10.02;;;;;;;-0.77;100.00;102838.66;4854941;29;20412;-81
2023/02/14 04:58:16;;;;;;;54.65;12.32;;;;;;;-0.85;100.00;102839.75;4857637;29;20041;-78
2023/02/14 05:00:42;;;;;;;36.30;9.57;;;;;;;-0.89;100.00;102840.31;4854324;29;20061;-84
2023/02/14 05:03:09;;;;;;;16.85;9.38;;;;;;;-0.90;100.00;102841.09;4858011;29;20412;-79
2023/02/14 05:05:35;;;;;;;23.35;9.05;;;;;;;-0.90;100.00;102848.81;4857594;29;20056;-84
2023/02/14 05:08:02;;;;;;;21.70;9.48;;;;;;;-0.96;100.00;102849.25;4856359;29;20071;-84
2023/02/14 05:10:28;;;;;;;25.00;9.85;;;;;;;-1.00;100.00;102842.13;4855758;29;20052;-77
2023/02/14 05:12:55;;;;;;;22.83;9.48;;;;;;;-1.02;100.00;102839.44;4857224;29;20675;-78
2023/02/14 05:15:21;;;;;;;14.98;8.50;;;;;;;-1.02;100.00;102844.56;4858476;29;20079;-77
2023/02/14 05:17:48;;;;;;;16.35;9.38;;;;;;;-1.04;100.00;102837.53;4856318;29;20080;-78
2023/02/14 05:20:14;;;;;;;13.30;8.63;;;;;;;-1.04;100.00;102833.28;4860026;29;20037;-76
2023/02/14 05:22:41;;;;;;;15.88;8.40;;;;;;;-1.03;100.00;102841.88;4860765;29;20548;-77
2023/02/14 05:25:07;;;;;;;20.52;8.65;;;;;;;-1.06;100.00;102836.50;4873183;29;20124;-80
2023/02/14 05:27:34;;;;;;;17.33;9.48;;;;;;;-1.06;100.00;102832.25;4865778;29;20077;-81
2023/02/14 05:30:00;;;;;;;18.75;7.60;;;;;;;-1.13;100.00;102832.59;4861389;29;20101;-77
2023/02/14 05:32:27;;;;;;;18.00;8.45;;;;;;;-1.18;100.00;102836.50;4858711;29;20048;-78
2023/02/14 05:34:54;;;;;;;18.17;8.43;;;;;;;-1.23;100.00;102830.13;4859492;29;20124;-81
2023/02/14 05:37:20;;;;;;;14.95;8.38;;;;;;;-1.30;100.00;102823.63;4856956;29;21059;-80
2023/02/14 05:39:46;;;;;;;18.00;8.85;;;;;;;-1.29;100.00;102824.53;4859558;29;20049;-84
2023/02/14 05:42:13;;;;;;;26.08;9.50;;;;;;;-1.29;100.00;102829.66;4870950;29;20574;-79
2023/02/14 05:44:39;;;;;;;17.15;7.90;;;;;;;-1.28;100.00;102831.44;4859912;29;20584;-77
2023/02/14 05:47:06;;;;;;;14.52;7.93;;;;;;;-1.24;100.00;102841.19;4855914;29;20054;-79
2023/02/14 05:49:33;;;;;;;15.85;8.10;;;;;;;-1.18;100.00;102839.06;4856905;29;20048;-80
2023/02/14 05:52:00;;;;;;;14.05;7.10;;;;;;;-1.12;100.00;102838.63;4860157;29;20049;-75
2023/02/14 05:54:26;;;;;;;19.45;8.25;;;;;;;-1.09;100.00;102837.19;4857474;29;20479;-77
2023/02/14 05:56:53;;;;;;;13.57;7.55;;;;;;;-1.06;100.00;102839.97;4872981;29;20055;-77
2023/02/14 05:59:19;;;;;;;14.18;8.18;;;;;;;-1.03;100.00;102837.63;4857032;29;20057;-77
2023/02/14 06:01:46;;;;;;;17.27;10.07;;;;;;;-0.99;100.00;102836.19;4860022;29;20064;-79
2023/02/14 06:04:13;;;;;;;15.52;7.82;;;;;;;-0.98;100.00;102834.50;4856826;29;20045;-77
2023/02/14 06:06:39;;;;;;;11.30;6.78;;;;;;;-0.97;100.00;102837.19;4859815;29;20049;-77
2023/02/14 06:09:06;;;;;;;13.82;8.10;;;;;;;-0.99;100.00;102841.34;4858765;29;20045;-82
2023/02/14 06:11:32;;;;;;;23.83;9.07;;;;;;;-0.98;100.00;102837.97;4857706;29;20052;-80
2023/02/14 06:13:59;;;;;;;16.58;8.77;;;;;;;-0.97;100.00;102841.44;4857295;29;20059;-76
2023/02/14 06:16:25;;;;;;;18.67;8.00;;;;;;;-0.95;100.00;102837.28;4845581;29;20045;-81
2023/02/14 06:18:52;;;;;;;23.33;9.65;;;;;;;-0.96;100.00;102835.53;4862094;29;20045;-78
2023/02/14 06:21:18;;;;;;;17.70;7.53;;;;;;;-1.01;100.00;102830.03;4863066;29;20041;-82
2023/02/14 06:23:45;;;;;;;16.83;9.60;;;;;;;-1.01;100.00;102838.63;4850739;29;20076;-79
2023/02/14 06:26:11;;;;;;;15.98;8.32;;;;;;;-0.96;100.00;102843.25;4868968;29;20049;-78
2023/02/14 06:28:38;;;;;;;16.17;8.52;;;;;;;-0.94;100.00;102837.44;4870473;29;20048;-77
2023/02/14 06:31:10;;;;;;;24.92;9.02;;;;;;;-0.93;100.00;102834.03;4870201;29;20056;-82
2023/02/14 06:33:36;;;;;;;22.15;8.32;;;;;;;-0.94;100.00;102842.56;4858735;29;20679;-79
2023/02/14 06:36:03;;;;;;;21.05;8.85;;;;;;;-0.92;100.00;102842.69;4857899;29;20045;-78
2023/02/14 06:38:30;;;;;;;12.75;8.43;;;;;;;-0.91;100.00;102842.78;4869142;29;20045;-77
2023/02/14 06:41:06;;;;;;;19.63;8.98;;;;;;;-0.90;100.00;102856.53;4857725;29;20044;-79
2023/02/14 06:43:33;;;;;;;20.45;9.18;;;;;;;-0.90;100.00;102849.72;4871153;29;20051;-79
2023/02/14 06:46:00;;;;;;;14.88;9.25;;;;;;;-0.91;100.00;102844.44;4858209;29;20053;-76
2023/02/14 06:48:26;;;;;;;16.30;9.38;;;;;;;-0.92;100.00;102846.13;4843998;29;20108;-81
2023/02/14 06:50:53;;;;;;;17.63;10.60;;;;;;;-0.92;100.00;102855.53;4863181;29;20056;-82
2023/02/14 06:53:21;;;;;;;16.67;8.85;;;;;;;-0.90;100.00;102849.72;4865340;29;20041;-77
2023/02/14 06:55:48;;;;;;;21.80;9.20;;;;;;;-0.87;100.00;102843.91;4861314;29;20052;-78
2023/02/14 06:58:15;;;;;;;21.95;12.95;;;;;;;-0.85;100.00;102853.53;4860136;29;20049;-83
2023/02/14 07:00:41;;;;;;;17.55;9.70;;;;;;;-0.84;100.00;102855.28;4858663;29;20053;-77
2023/02/14 07:03:08;;;;;;;17.08;10.48;;;;;;;-0.81;100.00;102854.63;4857610;29;20040;-79
2023/02/14 07:05:35;;;;;;;21.00;9.95;;;;;;;-0.82;100.00;102849.38;4867543;29;20040;-79
2023/02/14 07:08:01;;;;;;;15.75;9.80;;;;;;;-0.81;100.00;102848.59;4861401;29;20041;-81
2023/02/14 07:10:28;;;;;;;19.10;9.95;;;;;;;-0.78;100.00;102856.53;4864291;29;20045;-76
2023/02/14 07:12:55;;;;;;;17.90;9.52;;;;;;;-0.76;100.00;102852.41;4862180;29;20041;-76
2023/02/14 07:15:21;;;;;;;18.58;10.68;;;;;;;-0.76;100.00;102842.09;4859727;29;20058;-80
2023/02/14 07:17:48;;;;;;;23.23;11.07;;;;;;;-0.71;100.00;102851.06;4856840;29;20057;-77
2023/02/14 07:20:14;;;;;;;20.83;10.20;;;;;;;-0.69;100.00;102841.78;4858336;29;20041;-80
2023/02/14 07:22:45;;;;;;;17.15;10.43;;;;;;;-0.68;100.00;102843.53;4864798;29;20049;-81
2023/02/14 07:25:12;;;;;;;20.90;11.93;;;;;;;-0.65;100.00;102846.38;4860275;29;20033;-77
2023/02/14 07:27:39;;;;;;;18.92;10.93;;;;;;;-0.63;100.00;102849.03;4848850;29;20064;-77
2023/02/14 07:30:07;;;;;;;18.25;9.80;;;;;;;-0.61;100.00;102847.44;4852703;29;20052;-83
2023/02/14 07:32:34;;;;;;;19.00;10.30;;;;;;;-0.58;100.00;102843.44;4865480;29;20048;-79
2023/02/14 07:35:01;;;;;;;17.65;12.80;;;;;;;-0.52;100.00;102848.16;4858498;29;20155;-83
2023/02/14 07:37:28;;;;;;;18.65;10.57;;;;;;;-0.47;100.00;102848.47;4879238;29;20047;-81
2023/02/14 07:39:54;;;;;;;23.02;11.00;;;;;;;-0.41;100.00;102848.91;4868653;29;20056;-77
2023/02/14 07:42:20;;;;;;;17.00;10.02;;;;;;;-0.38;100.00;102844.88;4874971;29;20053;-81
2023/02/14 07:44:47;;;;;;;19.42;11.10;;;;;;;-0.30;100.00;102841.94;4860759;29;20049;-78
2023/02/14 07:47:13;;;;;;;21.52;10.80;;;;;;;-0.28;100.00;102836.09;4859765;29;20053;-79
2023/02/14 07:49:40;;;;;;;17.27;10.43;;;;;;;-0.20;100.00;102837.53;4861783;29;20068;-77
2023/02/14 07:52:06;;;;;;;19.35;10.98;;;;;;;-0.14;100.00;102833.59;4859137;29;20056;-77
2023/02/14 07:54:33;;;;;;;20.23;10.68;;;;;;;-0.07;100.00;102830.69;4858319;29;20477;-81
2023/02/14 07:56:59;;;;;;;26.23;12.00;;;;;;;-0.01;100.00;102829.44;4862398;29;20101;-82
2023/02/14 07:59:26;;;;;;;20.27;10.43;;;;;;;0.06;100.00;102832.44;4856655;29;20120;-77
2023/02/14 08:01:53;;;;;;;16.17;8.85;;;;;;;0.13;100.00;102834.63;4860954;29;20041;-77
2023/02/14 08:04:20;;;;;;;17.23;10.27;;;;;;;0.17;100.00;102826.34;4864154;29;20614;-77
2023/02/14 08:06:46;;;;;;;21.00;11.07;;;;;;;0.22;100.00;102837.88;4859318;29;20037;-79
2023/02/14 08:09:23;;;;;;;16.67;10.05;;;;;;;0.29;100.00;102837.47;4858108;29;20766;-79
2023/02/14 08:14:52;;;;;;;17.85;10.60;;;;;;;0.47;100.00;102831.78;4827279;29;20046;-77
2023/02/14 08:17:19;;;;;;;17.90;10.38;;;;;;;0.52;100.00;102834.69;4836880;29;20041;-77
2023/02/14 08:19:45;;;;;;;17.63;11.10;;;;;;;0.60;100.00;102830.91;4850322;29;20522;-76
2023/02/14 08:22:12;;;;;;;16.83;10.38;;;;;;;0.71;100.00;102834.22;4858576;29;20083;-75
2023/02/14 08:24:49;;;;;;;;;;;;;;;;;;;;;
2023/02/14 08:27:15;;;;;;;18.27;11.35;;;;;;;0.89;100.00;102837.16;4857851;29;20403;-79
2023/02/14 08:29:42;;;;;;;19.33;10.68;;;;;;;1.01;100.00;102832.78;4857617;29;20053;-82
2023/02/14 08:32:09;;;;;;;16.85;9.80;;;;;;;1.10;100.00;102829.91;4858106;29;20127;-77
2023/02/14 08:34:35;;;;;;;22.05;10.50;;;;;;;1.20;100.00;102829.72;4857203;29;20113;-79
2023/02/14 08:37:02;;;;;;;15.98;10.13;;;;;;;1.29;100.00;102821.66;4863172;29;20084;-78
2023/02/14 08:39:50;;;;;;;16.95;10.95;;;;;;;1.40;100.00;102824.94;4860554;29;20191;-80
2023/02/14 08:42:24;;;;;;;22.70;10.32;;;;;;;1.49;100.00;102828.09;4860242;29;20068;-77
2023/02/14 08:48:14;;;;;;;18.95;9.63;;;;;;;1.76;100.00;102823.78;4866467;29;19923;-83
2023/02/14 08:50:41;;;;;;;19.75;10.82;;;;;;;1.88;100.00;102822.72;4862315;29;20041;-79
2023/02/14 08:53:15;;;;;;;18.88;11.90;;;;;;;1.98;100.00;102826.00;4873998;29;20053;-82
2023/02/14 08:55:42;;;;;;;17.08;10.52;;;;;;;2.08;100.00;102826.56;4854182;29;20057;-79
2023/02/14 08:58:10;;;;;;;18.23;9.98;;;;;;;2.18;100.00;102821.16;4846142;29;20053;-77
2023/02/14 09:04:49;;;;;;;17.60;11.35;;;;;;;2.51;100.00;102823.06;4868896;29;20048;-80
2023/02/14 09:07:15;;;;;;;23.25;12.27;;;;;;;2.58;100.00;102820.03;4877118;29;20092;-80
2023/02/14 09:09:42;;;;;;;23.88;12.45;;;;;;;2.67;100.00;102814.50;4867215;29;20535;-78
2023/02/14 09:12:10;;;;;;;21.50;12.20;;;;;;;2.81;100.00;102821.38;4860623;29;20045;-82
2023/02/14 09:14:43;;;;;;;21.70;11.70;;;;;;;2.93;100.00;102811.75;4846243;29;20475;-78
2023/02/14 09:17:14;;;;;;;21.45;11.00;;;;;;;3.02;100.00;102813.94;4859126;29;20052;-81
2023/02/14 09:19:41;;;;;;;18.23;10.93;;;;;;;3.16;100.00;102812.16;4864400;29;20049;-78
2023/02/14 09:22:10;;;;;;;18.38;10.40;;;;;;;3.22;100.00;102814.19;4860414;29;20120;-76
2023/02/14 09:24:40;;;;;;;21.88;12.15;;;;;;;3.30;100.00;102811.22;4864171;29;20045;-77
2023/02/14 09:27:07;;;;;;;17.63;10.80;;;;;;;3.44;100.00;102811.09;4862942;29;20052;-77
2023/02/14 09:29:34;;;;;;;19.55;11.52;;;;;;;3.56;100.00;102816.06;4863084;29;20400;-77
2023/02/14 09:32:02;;;;;;;23.00;10.88;;;;;;;3.67;100.00;102816.66;4864770;29;20045;-76
2023/02/14 09:37:14;;;;;;;15.60;10.80;;;;;;;3.75;100.00;102812.78;4866007;29;20045;-81
2023/02/14 09:39:40;;;;;;;19.42;11.38;;;;;;;3.76;100.00;102815.44;4861439;29;20074;-84
2023/02/14 09:42:52;;;;;;;18.88;11.48;;;;;;;3.85;100.00;102807.28;4861752;29;20057;-77
2023/02/14 09:45:26;;;;;;;16.25;10.23;;;;;;;3.91;100.00;102802.44;4864771;29;20041;-79
2023/02/14 09:48:03;;;;;;;15.95;9.15;;;;;;;3.95;100.00;102801.78;4857488;29;20049;-78
2023/02/14 09:50:39;;;;;;;16.15;10.18;;;;;;;4.03;100.00;102797.00;4858912;29;20041;-78
2023/02/14 09:53:23;;;;;;;14.57;10.00;;;;;;;4.12;100.00;102796.59;4861406;29;20132;-84
2023/02/14 09:56:16;;;;;;;17.33;10.93;;;;;;;4.19;100.00;102797.81;4878059;29;20049;-77
2023/02/14 09:58:55;;;;;;;17.65;11.13;;;;;;;4.30;100.00;102801.81;4856822;29;20124;-79
2023/02/14 10:01:50;;;;;;;17.08;10.73;;;;;;;4.39;100.00;102793.63;4861532;29;20049;-77
2023/02/14 10:04:21;;;;;;;;;;;;;;;4.41;100.00;102794.63;4863226;29;20052;-78
2023/02/14 10:07:08;;;;;;;16.70;10.25;;;;;;;4.48;100.00;102788.91;4878559;29;19934;-77
2023/02/14 10:10:11;;;;;;;18.08;10.70;;;;;;;4.61;100.00;102783.50;4858270;29;20053;-79
2023/02/14 10:12:53;;;;;;;15.27;9.65;;;;;;;4.71;100.00;102787.47;4856658;29;20049;-77
2023/02/14 10:15:32;;;;;;;20.33;11.07;;;;;;;4.85;100.00;102782.06;4857736;29;20122;-81
2023/02/14 10:18:11;;;;;;;16.25;10.18;;;;;;;4.99;100.00;102783.63;4857794;29;20037;-77
2023/02/14 10:20:50;;;;;;;18.88;11.65;;;;;;;5.07;100.00;102781.41;4877032;29;20051;-79
2023/02/14 10:24:00;;;;;;;17.13;10.20;;;;;;;5.11;100.00;102778.13;4876098;29;20536;-79
2023/02/14 10:26:40;;;;;;;20.65;9.88;;;;;;;5.24;100.00;102782.19;4843483;29;20052;-77
2023/02/14 10:29:18;;;;;;;20.40;9.98;;;;;;;5.34;100.00;102779.22;4860471;29;20053;-79
2023/02/14 10:32:04;;;;;;;16.17;10.15;;;;;;;5.47;100.00;102785.88;4857471;29;20552;-77
2023/02/14 10:34:41;;;;;;;16.10;9.90;;;;;;;5.59;100.00;102783.88;4863020;29;20051;-76
2023/02/14 10:37:44;;;;;;;17.27;10.35;;;;;;;5.76;100.00;102781.13;4858585;29;20045;-77
2023/02/14 10:40:35;;;;;;;14.45;8.60;;;;;;;5.91;100.00;102778.34;4858151;29;20060;-76
2023/02/14 10:43:53;;;;;;;15.55;9.88;;;;;;;6.00;100.00;102775.28;4856008;29;20052;-77
2023/02/14 10:46:46;;;;;;;15.57;10.55;;;;;;;6.19;100.00;102776.97;4858877;29;20053;-79
2023/02/14 10:50:08;;;;;;;15.52;10.07;;;;;;;6.23;100.00;102781.47;4857919;29;20044;-77
2023/02/14 10:53:03;;;;;;;13.85;8.55;;;;;;;6.20;100.00;102773.56;4869675;29;20496;-79
2023/02/14 10:55:57;;;;;;;14.57;9.88;;;;;;;6.25;100.00;102767.72;4862304;29;20057;-81
2023/02/14 10:58:28;;;;;;;14.70;9.57;;;;;;;6.32;100.00;102762.78;4857257;29;20045;-79
2023/02/14 11:01:08;;;;;;;12.52;8.50;;;;;;;6.43;100.00;102758.94;4861899;29;20745;-78
2023/02/14 11:03:38;;;;;;;16.13;9.32;;;;;;;6.51;100.00;102754.94;4873579;29;20048;-80
2023/02/14 11:06:04;;;;;;;12.80;7.38;;;;;;;6.52;100.00;102755.81;4843360;29;20063;-81
2023/02/14 11:08:41;;;;;;;12.27;8.70;;;;;;;6.51;100.00;102752.34;4858394;29;20045;-77
2023/02/14 11:11:23;;;;;;;16.90;9.43;;;;;;;6.61;100.00;102749.28;4856961;29;20112;-79
2023/02/14 11:13:50;;;;;;;14.15;8.48;;;;;;;6.74;100.00;102745.47;4861166;29;20044;-78
2023/02/14 11:16:36;;;;;;;16.10;9.57;;;;;;;6.86;100.00;102739.88;4861286;29;20048;-77
2023/02/14 11:19:22;;;;;;;17.58;10.23;;;;;;;6.98;100.00;102733.38;4870158;29;20056;-77
2023/02/14 11:21:50;;;;;;;12.27;8.25;;;;;;;7.03;100.00;102732.72;4861549;29;20053;-76
2023/02/14 11:24:40;;;;;;;15.15;8.70;;;;;;;7.09;100.00;102726.84;4856663;29;20041;-77
2023/02/14 11:27:09;;;;;;;12.20;8.90;;;;;;;7.09;100.00;102717.34;4846107;29;20053;-81
2023/02/14 11:29:44;;;;;;;13.82;8.98;;;;;;;7.13;100.00;102710.50;4876590;29;20052;-80
2023/02/14 11:32:24;;;;;;;10.93;7.93;;;;;;;7.23;100.00;102709.16;4870798;29;20071;-76
2023/02/14 11:34:54;;;;;;;13.23;9.20;;;;;;;7.29;100.00;102710.28;4863921;29;20063;-80
2023/02/14 11:37:28;;;;;;;13.15;9.02;;;;;;;7.32;100.00;102706.03;4862005;29;20131;-78
2023/02/14 11:39:59;;;;;;;13.77;8.68;;;;;;;7.40;100.00;102712.41;4857514;29;20041;-78
2023/02/14 11:42:47;;;;;;;13.77;8.75;;;;;;;7.42;100.00;102711.63;4854961;29;21369;-79
2023/02/14 11:45:30;;;;;;;14.98;9.25;;;;;;;7.53;100.00;102716.34;4860657;29;20049;-76
2023/02/14 11:48:19;;;;;;;11.15;8.25;;;;;;;7.48;100.00;102705.75;4858535;29;20047;-81
2023/02/14 11:51:08;;;;;;;9.85;7.57;;;;;;;7.53;100.00;102704.19;4875331;29;20064;-76
2023/02/14 11:53:45;;;;;;;11.15;7.93;;;;;;;7.61;100.00;102704.47;4852305;29;20104;-78
2023/02/14 11:56:13;;;;;;;12.27;8.35;;;;;;;7.60;100.00;102703.59;4874372;29;20695;-77
2023/02/14 11:58:49;;;;;;;11.93;8.00;;;;;;;7.60;100.00;102698.41;4854058;29;20033;-78
2023/02/14 12:01:25;;;;;;;12.27;8.07;;;;;;;7.65;100.00;102693.34;4866159;29;20057;-79
2023/02/14 12:03:54;;;;;;;15.65;8.43;;;;;;;7.83;100.00;102693.09;4856870;29;20123;-80
2023/02/14 12:06:32;;;;;;;13.05;8.32;;;;;;;7.97;99.99;102691.00;4855454;29;20045;-78